Open Full Screen Window  High Contrast Mode
Wind Gusting 00 knots
03
November 26, 2014 8:43 AM CST
Weather Information
Wind Direction
  050 °
Wind Speed
  03 kt (3 mph)
Wind Gust
  00 kt (0 mph)
Altimeter
30.15 in
Visibility
10 SM
Temperature
-01° C
30° F
Dewpoint
-03° C
27° F
Humidity
86%
Sky Condition
Overcast @ 1,400 ft
MVFR

METAR KAXV 261443Z AUTO 05003KT 10SM OVC014 M01/M03 A3015 RMK AO2

*Background is not an actual portrayal of the airport.